PABT/BTT METAR and TAF weather

Enter ICAO airport designator
Station Type Date Time Source
PABT METAR 2021/05/11 00:53 UTC NOAA

PABT 110053Z 23003KT 10SM FEW048 BKN090 BKN140 14/M02 A3000 RMK AO2 SLP167 T01391022


Station Type Date Time Source
PABT Decoded METAR 2021/05/11 00:53 UTC NOAA

BETTLES AIRPORT, AK, United States (PABT) 66-54N 151-31W 196M
May 10, 2021 - 08:53 PM EDT / 2021.05.11 0053 UTC
Wind: from the SW (230 degrees) at 3 MPH (3 KT):0
Visibility: 10 mile(s):0
Sky conditions: mostly cloudy
Temperature: 57.0 F (13.9 C)
Dew Point: 28.0 F (-2.2 C)
Relative Humidity: 32%
Pressure (altimeter): 30 in. Hg (1015 hPa)
ob: PABT 110053Z 23003KT 10SM FEW048 BKN090 BKN140 14/M02 A3000 RMK AO2 SLP167 T01391022
cycle: 1

Station Type Date Time Source
PABT TAF 2021/05/10 18:33 UTC NOAA

TAF PABT 101730Z 1018/1118 VRB04KT P6SM SCT090 SCT110 OVC140

Example: see airport list